Flight Track Log - Related Links

Times and Time Zones

All times are in EDT time to prevent confusion due to time zone crossing. See the SWA1004 flight status page for this flight to view local times or setup timezone preferences in your user account.

Time Position Orientation Groundspeed Altitude Reporting Facility
EDT Latitude Longitude Course Direction KTS MPH feet Rate Location/Type
Fri 03:42:53 PM 29.5586 -98.4336 47° Northeast 162 186 2,500  Level Houston Center
Fri 03:43:22 PM 29.5800 -98.4233 23° Northeast 185 213 3,300 1,742 Climbing Houston Center
Fri 03:43:55 PM 29.6067 -98.4461 323° Northwest 215 247 4,300 1,527 Climbing Houston Center
Fri 03:44:17 PM 29.6214 -98.4642 313° West 250 288 4,700 2,032 Climbing Houston Center
Fri 03:44:57 PM 29.6558 -98.5075 312° West 265 305 6,400 2,852 Climbing Houston Center
Fri 03:45:18 PM 29.6761 -98.5344 311° West 294 338 7,600 3,387 Climbing Houston Center
Fri 03:45:59 PM 29.7131 -98.5808 313° West 286 329 9,900 2,330 Climbing Houston Center
Fri 03:47:01 PM 29.7731 -98.6569 312° West 325 374 11,600 2,661 Climbing Houston Center
Fri 03:48:03 PM 29.8397 -98.7489 310° West 346 398 15,400 3,048 Climbing Houston Center
Fri 03:49:05 PM 29.9053 -98.8383 310° West 364 419 17,900 2,688 Climbing Houston Center
Fri 03:50:08 PM 29.9744 -98.9319 310° West 381 438 21,000 2,784 Climbing Houston Center
Fri 03:51:10 PM 30.0481 -99.0342 310° West 385 443 23,700 2,177 Climbing Houston Center
Fri 03:52:12 PM 30.1000 -99.1411 299° West 397 457 25,500 1,790 Climbing Houston Center
Fri 03:53:14 PM 30.1325 -99.2633 287° West 401 461 27,400 1,790 Climbing Houston Center
Fri 03:54:16 PM 30.1661 -99.3894 287° West 411 473 29,200 1,762 Climbing Houston Center
Fri 03:55:20 PM 30.2003 -99.5147 288° West 411 473 31,100 1,839 Climbing Houston Center
Fri 03:56:20 PM 30.2419 -99.6661 288° West 413 475 33,000 1,721 Climbing Houston Center
Fri 03:57:22 PM 30.2758 -99.7925 287° West 414 476 34,600 1,440 Climbing Houston Center
Fri 03:58:25 PM 30.3094 -99.9181 287° West 413 475 36,000 1,392 Climbing Houston Center
Fri 03:59:27 PM 30.3411 -100.0417 287° West 404 465 37,500 968 Climbing Houston Center
Fri 04:00:29 PM 30.3800 -100.1886 287° West 403 464 38,000 242 Climbing Houston Center
Fri 04:01:31 PM 30.4133 -100.3122 287° West 406 467 38,000  Level Houston Center
Fri 04:02:33 PM 30.4461 -100.4375 287° West 408 470 38,000  Level Houston Center
Fri 04:03:36 PM 30.4781 -100.5650 286° West 417 480 38,000  Level Houston Center
Fri 04:04:39 PM 30.5108 -100.6908 287° West 413 475 38,000  Level Houston Center
Fri 04:05:39 PM 30.5489 -100.8406 286° West 405 466 38,000  Level Houston Center
Fri 04:06:42 PM 30.5803 -100.9647 286° West 404 465 38,000  Level Houston Center
Fri 04:07:44 PM 30.6117 -101.0875 287° West 401 461 38,000  Level Houston Center
Fri 04:08:46 PM 30.6433 -101.2094 287° West 398 458 38,000  Level Houston Center
Fri 04:09:48 PM 30.6756 -101.3333 287° West 399 459 38,000  Level Houston Center
Fri 04:10:50 PM 30.7053 -101.4583 285° West 400 460 38,000  Level Houston Center
Fri 04:11:52 PM 30.7428 -101.6064 286° West 400 460 38,000  Level Houston Center
Fri 04:12:46 PM 30.7669 -101.7050 286° West 402 463 38,000  Level Albuquerque Center
Fri 04:13:48 PM 30.7992 -101.8286 287° West 400 460 38,000  Level Albuquerque Center
Fri 04:14:50 PM 30.8306 -101.9531 286° West 401 461 38,000  Level Albuquerque Center
Fri 04:15:52 PM 30.8661 -102.1008 286° West 396 456 38,000  Level Albuquerque Center
Fri 04:16:54 PM 30.8950 -102.2225 285° West 392 451 38,000  Level Albuquerque Center
Fri 04:17:56 PM 30.9244 -102.3439 286° West 388 447 38,000  Level Albuquerque Center
Fri 04:18:58 PM 30.9550 -102.4656 286° West 387 445 38,000  Level Albuquerque Center
Fri 04:20:00 PM 30.9836 -102.5881 285° West 389 448 38,000  Level Albuquerque Center
Fri 04:21:02 PM 31.0133 -102.7097 286° West 389 448 38,000  Level Albuquerque Center
Fri 04:22:04 PM 31.0419 -102.8303 286° West 387 445 38,000  Level Albuquerque Center
Fri 04:23:06 PM 31.0756 -102.9753 285° West 386 444 38,000  Level Albuquerque Center
Fri 04:24:08 PM 31.1044 -103.0981 285° West 388 447 38,000  Level Albuquerque Center
Fri 04:25:10 PM 31.1347 -103.2197 286° West 390 449 38,000  Level Albuquerque Center
Fri 04:26:12 PM 31.1636 -103.3408 286° West 389 448 38,000  Level Albuquerque Center
Fri 04:27:15 PM 31.1908 -103.4611 285° West 385 443 38,000  Level Albuquerque Center
Fri 04:28:17 PM 31.2189 -103.5828 285° West 386 444 38,000  Level Albuquerque Center
Fri 04:29:19 PM 31.2517 -103.7281 285° West 385 443 38,000  Level Albuquerque Center
Fri 04:30:21 PM 31.2750 -103.8278 285° West 385 443 38,000  Level Albuquerque Center
Fri 04:31:23 PM 31.3083 -103.9725 285° West 385 443 38,000  Level Albuquerque Center
Fri 04:32:25 PM 31.3372 -104.0933 286° West 386 444 38,000  Level Albuquerque Center
Fri 04:33:27 PM 31.3647 -104.2136 285° West 385 443 38,000  Level Albuquerque Center
Fri 04:34:29 PM 31.3922 -104.3339 285° West 384 442 38,000  Level Albuquerque Center
Fri 04:35:31 PM 31.4192 -104.4561 285° West 387 445 38,000  Level Albuquerque Center
Fri 04:36:33 PM 31.4531 -104.6044 285° West 392 451 38,000  Level Albuquerque Center
Fri 04:37:35 PM 31.4797 -104.7261 284° West 392 451 38,000  Level Albuquerque Center
Fri 04:38:37 PM 31.5072 -104.8467 285° West 389 448 38,000  Level Albuquerque Center
Fri 04:39:39 PM 31.5339 -104.9672 285° West 387 445 38,000  Level Albuquerque Center
Fri 04:40:41 PM 31.5594 -105.0869 284° West 385 443 38,000  Level Albuquerque Center
Fri 04:41:43 PM 31.5917 -105.2331 285° West 388 447 38,000  Level Albuquerque Center
Fri 04:42:45 PM 31.6183 -105.3578 284° West 397 457 38,000  Level Albuquerque Center
Fri 04:43:47 PM 31.6450 -105.4817 284° West 394 453 38,000  Level Albuquerque Center
Fri 04:44:49 PM 31.6722 -105.6025 285° West 387 445 38,000  Level Albuquerque Center
Fri 04:45:51 PM 31.6983 -105.7275 284° West 394 453 38,000  Level Albuquerque Center
Fri 04:46:53 PM 31.7294 -105.8750 284° West 389 448 38,000  Level Albuquerque Center
Fri 04:47:56 PM 31.7558 -105.9992 284° West 392 451 38,000  Level Albuquerque Center
Fri 04:48:58 PM 31.7822 -106.1225 284° West 391 450 38,000  Level Albuquerque Center
Fri 04:50:00 PM 31.8097 -106.2447 285° West 390 449 38,000  Level Albuquerque Center
Fri 04:51:02 PM 31.8269 -106.3692 279° West 386 444 38,000  Level Albuquerque Center
Fri 04:52:04 PM 31.8489 -106.4947 282° West 391 450 38,000  Level Albuquerque Center
Fri 04:53:06 PM 31.8700 -106.6269 281° West 391 450 38,000  Level Albuquerque Center
Fri 04:54:08 PM 31.8911 -106.7522 281° West 390 449 38,000  Level Albuquerque Center
Fri 04:55:10 PM 31.9158 -106.9028 281° West 389 448 38,000  Level Albuquerque Center
Fri 04:56:12 PM 31.9358 -107.0300 281° West 393 452 38,000  Level Albuquerque Center
Fri 04:57:14 PM 31.9561 -107.1581 281° West 396 456 38,000  Level Albuquerque Center
Fri 04:58:16 PM 31.9753 -107.2864 280° West 396 456 38,000  Level Albuquerque Center
Fri 04:59:18 PM 31.9953 -107.4153 280° West 398 458 38,000  Level Albuquerque Center
Fri 05:00:20 PM 32.0156 -107.5453 280° West 401 461 38,000  Level Albuquerque Center
Fri 05:01:22 PM 32.0344 -107.6733 280° West 398 458 38,000  Level Albuquerque Center
Fri 05:02:24 PM 32.0589 -107.8267 281° West 396 456 38,000  Level Albuquerque Center
Fri 05:03:26 PM 32.0778 -107.9553 280° West 397 457 38,000  Level Albuquerque Center
Fri 05:04:28 PM 32.0964 -108.0836 280° West 397 457 38,000  Level Albuquerque Center
Fri 05:05:30 PM 32.1156 -108.2031 281° West 399 459 38,000  Level Albuquerque Center
Fri 05:06:32 PM 32.1389 -108.3583 280° West 404 465 38,000 -240 Level Albuquerque Center
Fri 05:07:35 PM 32.1575 -108.4872 280° West 402 463 37,500 -672 Descending Albuquerque Center
Fri 05:08:37 PM 32.1769 -108.6181 280° West 405 466 36,600 -919 Descending Albuquerque Center
Fri 05:09:39 PM 32.1958 -108.7522 279° West 413 475 35,600 -919 Descending Albuquerque Center
Fri 05:10:41 PM 32.2150 -108.8864 280° West 416 479 34,700 -774 Descending Albuquerque Center
Fri 05:11:43 PM 32.2369 -109.0478 279° West 417 480 34,000 -339 Descending Albuquerque Center
Fri 05:12:45 PM 32.2569 -109.1814 280° West 416 479 34,000 -242 Level Albuquerque Center
Fri 05:13:47 PM 32.2808 -109.3156 282° West 418 481 33,500 -677 Descending Albuquerque Center
Fri 05:14:49 PM 32.3144 -109.4500 287° West 425 489 32,600 -968 Descending Albuquerque Center
Fri 05:15:51 PM 32.3464 -109.5847 286° West 428 493 31,500 -1,113 Descending Albuquerque Center
Fri 05:16:53 PM 32.3847 -109.7431 286° West 423 487 30,300 -1,065 Descending Albuquerque Center
Fri 05:17:55 PM 32.4156 -109.8731 286° West 416 479 29,300 -968 Descending Albuquerque Center
Fri 05:18:57 PM 32.4503 -110.0067 287° West 421 484 28,300 -968 Descending Albuquerque Center
Fri 05:19:59 PM 32.4806 -110.1367 285° West 417 480 27,300 -968 Descending Albuquerque Center
Fri 05:21:01 PM 32.5100 -110.2606 286° West 402 463 26,300 -1,016 Descending Albuquerque Center
Fri 05:22:03 PM 32.5394 -110.3875 285° West 393 452 25,200 -1,113 Descending Albuquerque Center
Fri 05:23:05 PM 32.5744 -110.5339 286° West 387 445 24,000 -581 Descending Albuquerque Center
Fri 05:24:07 PM 32.6206 -110.6492 295° West 392 451 24,000 -97 Level Albuquerque Center
Fri 05:25:09 PM 32.6797 -110.7603 302° West 398 458 23,800 -768 Descending Albuquerque Center
Fri 05:26:12 PM 32.7386 -110.8683 303° West 394 453 22,400 -1,680 Descending Albuquerque Center
Fri 05:27:14 PM 32.7981 -110.9786 303° West 395 455 20,300 -2,177 Descending Albuquerque Center
Fri 05:28:16 PM 32.8556 -111.0919 301° West 399 459 17,900 -2,226 Descending Albuquerque Center
Fri 05:29:18 PM 32.9219 -111.2283 300° West 397 457 15,700 -1,742 Descending Albuquerque Center
Fri 05:30:20 PM 32.9706 -111.3344 299° West 370 426 14,300 -1,694 Descending Albuquerque Center
Fri 05:31:22 PM 33.0167 -111.4328 299° West 344 396 12,200 -1,839 Descending Albuquerque Center
Fri 05:32:24 PM 33.0642 -111.5236 302° West 326 375 10,500 -1,210 Descending Albuquerque Center
Fri 05:33:26 PM 33.1250 -111.5872 319° Northwest 298 343 9,700 -871 Descending Albuquerque Center
Fri 05:34:28 PM 33.1950 -111.6247 336° Northwest 278 320 8,700 -968 Descending Albuquerque Center
Fri 05:35:30 PM 33.2686 -111.6686 334° Northwest 248 285 7,700 -1,016 Descending Albuquerque Center
Fri 05:36:32 PM 33.3286 -111.7028 335° Northwest 240 276 6,600 -1,016 Descending Albuquerque Center
Fri 05:37:34 PM 33.3883 -111.7375 334° Northwest 238 274 5,600 -968 Descending Albuquerque Center
Fri 05:38:36 PM 33.4192 -111.8014 300° West 233 268 4,600 -864 Descending Albuquerque Center
Fri 05:39:39 PM 33.4261 -111.8714 277° West 212 244 3,800 -919 Descending Albuquerque Center
Fri 05:40:40 PM 33.4289 -111.9217 274° West 154 177 2,700 -1,073 Descending Albuquerque Center
Fri 05:41:42 PM 33.4314 -111.9681 274° West 141 162 1,600 -774 Descending Albuquerque Center
Fri 05:42:44 PM 33.4303 -112.0214 269° West 138 159 1,100 -484 Descending Albuquerque Center
Fri 05:44:00 PM 33.4343 -112.0116 40° Northeast  Level Estimated

Login

Don't have an account? Register now (free) for customized features, flight alerts, and more!